Time;durP1;ratioP1;P1;durP2;ratioP2;P2;SDS_P1;SDS_P2;PMS_P1;PMS_P2;Temp;Humidity;BMP_temperature;BMP_pressure;BME280_temperature;BME280_humidity;BME280_pressure;Samples;Min_cycle;Max_cycle;Signal;HPM_P1;HPM_P2
2022/06/12 00:01:22;;;;;;;6.65;2.75;;;;;;;26.79;31.99;101846.53;5039642;28;20119;-75
2022/06/12 00:03:49;;;;;;;5.63;2.70;;;;;;;26.78;31.81;101846.69;5042262;28;20041;-75
2022/06/12 00:06:18;;;;;;;6.78;2.45;;;;;;;26.77;31.66;101848.63;5038851;28;20536;-75
2022/06/12 00:08:46;;;;;;;5.90;2.58;;;;;;;26.74;31.84;101846.22;5042422;28;20496;-75
2022/06/12 00:11:21;;;;;;;7.22;3.20;;;;;;;26.72;31.91;101845.53;5045169;28;20049;-75
2022/06/12 00:13:51;;;;;;;6.53;2.58;;;;;;;26.73;31.91;101843.63;5042041;28;20428;-75
2022/06/12 00:16:19;;;;;;;7.85;2.88;;;;;;;26.69;31.92;101843.09;5045680;28;20068;-75
2022/06/12 00:18:45;;;;;;;5.85;2.97;;;;;;;26.67;32.16;101849.94;5042975;28;20092;-75
2022/06/12 00:21:12;;;;;;;6.35;2.55;;;;;;;26.65;31.92;101849.25;5044588;28;20103;-75
2022/06/12 00:23:50;;;;;;;6.60;3.33;;;;;;;26.67;31.64;101842.44;5043123;28;20076;-75
2022/06/12 00:26:29;;;;;;;5.65;2.53;;;;;;;26.63;32.03;101848.56;5045885;28;20076;-75
2022/06/12 00:29:04;;;;;;;6.93;2.70;;;;;;;26.62;31.81;101853.25;5038538;28;20040;-74
2022/06/12 00:31:34;;;;;;;8.50;2.78;;;;;;;26.56;31.85;101854.00;5042961;28;20229;-74
2022/06/12 00:34:01;;;;;;;7.85;2.88;;;;;;;26.53;31.72;101849.63;5045150;28;20524;-74
2022/06/12 00:36:28;;;;;;;5.95;2.42;;;;;;;26.52;32.21;101845.13;5044352;28;20380;-75
2022/06/12 00:38:55;;;;;;;6.18;2.60;;;;;;;26.51;32.11;101853.69;5048062;28;20087;-76
2022/06/12 00:41:21;;;;;;;5.45;2.58;;;;;;;26.48;31.88;101851.25;5040733;28;20161;-76
2022/06/12 00:43:48;;;;;;;7.45;2.78;;;;;;;26.46;31.80;101851.44;5046123;28;20061;-75
2022/06/12 00:46:40;;;;;;;5.50;2.50;;;;;;;26.44;31.73;101852.66;5047119;28;20545;-75
2022/06/12 00:49:19;;;;;;;6.32;2.28;;;;;;;26.42;31.44;101852.00;5046588;28;20796;-75
2022/06/12 00:51:49;;;;;;;6.00;2.70;;;;;;;26.38;31.73;101856.16;5045527;28;20087;-75
2022/06/12 00:54:17;;;;;;;5.90;2.78;;;;;;;26.34;31.73;101852.91;5049230;28;20454;-75
2022/06/12 00:56:49;;;;;;;5.35;2.63;;;;;;;26.32;31.83;101855.00;5047954;28;20053;-75
2022/06/12 00:59:32;;;;;;;6.05;2.90;;;;;;;26.27;31.84;101863.03;5043782;28;20053;-75
2022/06/12 01:01:59;;;;;;;5.25;2.35;;;;;;;26.22;31.44;101854.28;5044870;28;20158;-75
2022/06/12 01:07:21;;;;;;;5.72;2.38;;;;;;;26.18;31.50;101850.16;5038570;28;20099;-75
2022/06/12 01:09:52;;;;;;;5.57;2.15;;;;;;;26.16;31.11;101860.59;5035717;28;20073;-75
2022/06/12 01:12:23;;;;;;;6.32;2.55;;;;;;;26.12;31.29;101856.41;5036514;28;20303;-75
2022/06/12 01:14:55;;;;;;;8.23;2.28;;;;;;;26.10;31.55;101852.97;5038841;28;20045;-75
2022/06/12 01:17:24;;;;;;;7.10;2.40;;;;;;;26.04;31.37;101859.22;5045297;28;20088;-75
2022/06/12 01:19:59;;;;;;;5.55;2.42;;;;;;;26.05;31.41;101858.19;5044697;28;20057;-75
2022/06/12 01:23:17;;;;;;;5.63;2.58;;;;;;;25.94;31.62;101847.47;5036837;28;20045;-75
2022/06/12 01:26:54;;;;;;;5.78;2.20;;;;;;;25.87;31.59;101846.41;5009940;28;20081;-75
2022/06/12 01:29:39;;;;;;;5.80;2.13;;;;;;;25.87;31.78;101847.28;5042383;28;20782;-75
2022/06/12 01:32:22;;;;;;;7.03;2.65;;;;;;;25.86;31.63;101848.31;5044770;28;20132;-75
2022/06/12 01:34:56;;;;;;;4.93;2.50;;;;;;;25.82;31.32;101854.44;5039297;28;20042;-75
2022/06/12 01:37:44;;;;;;;6.32;2.70;;;;;;;25.81;31.53;101847.13;5044502;28;20136;-75
2022/06/12 01:40:26;;;;;;;6.57;2.70;;;;;;;25.75;31.45;101851.50;5041136;28;20136;-75
2022/06/12 01:42:58;;;;;;;5.07;2.67;;;;;;;25.70;31.83;101848.38;5046248;28;20124;-75
2022/06/12 01:45:36;;;;;;;5.03;2.42;;;;;;;25.61;31.72;101839.16;5046627;28;20041;-75
2022/06/12 01:48:06;;;;;;;6.78;2.60;;;;;;;25.58;31.82;101842.28;5046292;28;20040;-76
2022/06/12 01:50:42;;;;;;;5.13;2.28;;;;;;;25.59;31.80;101841.28;5039316;28;20045;-75
2022/06/12 01:53:28;;;;;;;5.55;2.35;;;;;;;25.52;31.77;101842.13;5047606;28;20132;-75
2022/06/12 01:56:17;;;;;;;6.70;2.90;;;;;;;25.48;32.03;101849.06;5043898;28;20076;-75
2022/06/12 01:58:56;;;;;;;4.15;2.13;;;;;;;25.47;32.22;101845.41;5033144;28;20090;-74
2022/06/12 02:01:36;;;;;;;5.75;2.42;;;;;;;25.45;32.42;101852.22;5036748;28;20049;-74
2022/06/12 02:04:27;;;;;;;5.25;2.22;;;;;;;25.38;32.26;101852.91;5040377;28;20130;-74
2022/06/12 02:07:02;;;;;;;5.97;2.40;;;;;;;25.36;32.57;101843.91;5044837;28;20077;-73
2022/06/12 02:09:37;;;;;;;6.72;2.70;;;;;;;25.33;32.49;101844.22;5045851;28;20136;-74
2022/06/12 02:15:04;;;;;;;6.37;2.47;;;;;;;25.25;32.75;101837.81;5037975;28;20087;-75
2022/06/12 02:17:37;;;;;;;6.85;2.70;;;;;;;25.24;32.90;101842.50;5044035;28;20061;-75
2022/06/12 02:20:09;;;;;;;4.80;2.42;;;;;;;25.22;33.07;101841.78;5046942;28;20072;-75
2022/06/12 02:22:38;;;;;;;;;;;;;;;24.89;32.95;101838.09;5038462;28;20069;-76
2022/06/12 02:25:15;;;;;;;5.88;2.30;;;;;;;25.12;32.86;101841.09;5047062;28;19970;-74
2022/06/12 02:27:57;;;;;;;5.75;2.67;;;;;;;25.13;32.82;101833.63;5038959;28;20048;-75
2022/06/12 02:30:30;;;;;;;6.43;3.00;;;;;;;25.06;32.96;101839.00;5044422;28;20080;-75
2022/06/12 02:33:00;;;;;;;;;;;;;;;24.75;33.46;101832.34;5042564;28;20041;-74
2022/06/12 02:35:45;;;;;;;5.85;2.33;;;;;;;24.98;33.48;101839.88;5033530;28;20335;-75
2022/06/12 02:38:40;;;;;;;5.70;2.33;;;;;;;24.93;33.31;101833.97;5043755;28;20076;-75
2022/06/12 02:41:11;;;;;;;7.05;2.80;;;;;;;24.89;32.80;101835.31;5049935;28;20045;-75
2022/06/12 02:43:41;;;;;;;5.35;2.55;;;;;;;24.90;33.49;101833.41;5047920;28;20053;-75
2022/06/12 02:46:15;;;;;;;5.07;2.60;;;;;;;24.90;33.55;101833.41;5048300;28;20048;-75
2022/06/12 02:48:42;;;;;;;5.78;2.67;;;;;;;24.83;33.50;101835.16;5041564;28;20064;-75
2022/06/12 02:51:20;;;;;;;4.75;3.00;;;;;;;24.83;33.70;101838.78;5043226;28;20139;-75
2022/06/12 02:54:00;;;;;;;5.38;3.05;;;;;;;24.80;33.74;101838.25;5049538;28;20132;-75
2022/06/12 02:56:36;;;;;;;5.75;2.80;;;;;;;24.77;33.46;101831.16;5044168;28;20041;-75
2022/06/12 02:59:21;;;;;;;5.38;2.72;;;;;;;24.74;33.84;101827.84;5046578;28;20159;-75
2022/06/12 03:02:10;;;;;;;5.70;3.08;;;;;;;24.70;34.10;101826.47;5043765;28;20124;-75
2022/06/12 03:04:45;;;;;;;6.30;2.78;;;;;;;24.63;34.43;101827.13;5049072;28;20049;-75
2022/06/12 03:07:12;;;;;;;6.13;2.92;;;;;;;24.59;33.92;101824.88;5042013;28;20076;-75
2022/06/12 03:09:38;;;;;;;5.40;3.15;;;;;;;24.57;33.72;101829.72;5051060;28;20049;-75
2022/06/12 03:12:06;;;;;;;5.70;2.88;;;;;;;24.55;34.04;101821.53;5043762;28;20120;-75
2022/06/12 03:14:33;;;;;;;6.55;3.40;;;;;;;24.53;34.15;101826.44;5049646;28;20480;-75
2022/06/12 03:17:00;;;;;;;6.35;3.08;;;;;;;24.48;34.23;101820.50;5048460;28;20476;-75
2022/06/12 03:19:31;;;;;;;5.00;2.90;;;;;;;24.49;34.42;101827.78;5046829;28;20447;-75
2022/06/12 03:21:58;;;;;;;6.00;3.33;;;;;;;24.44;33.97;101826.56;5040827;28;20049;-75
2022/06/12 03:24:39;;;;;;;6.03;2.90;;;;;;;24.42;34.22;101823.09;5045371;28;20158;-75
2022/06/12 03:27:37;;;;;;;6.47;3.00;;;;;;;24.39;34.83;101835.38;5044949;28;20420;-75
2022/06/12 03:30:30;;;;;;;5.90;2.90;;;;;;;24.31;34.92;101840.91;5037494;28;20511;-75
2022/06/12 03:33:02;;;;;;;6.25;2.88;;;;;;;24.34;34.88;101837.81;5043542;28;20411;-75
2022/06/12 03:35:54;;;;;;;5.68;2.85;;;;;;;24.28;34.48;101841.25;5044936;28;20087;-75
2022/06/12 03:38:24;;;;;;;6.63;3.22;;;;;;;24.27;34.51;101842.28;5047955;28;20462;-75
2022/06/12 03:40:57;;;;;;;5.55;2.80;;;;;;;24.28;35.09;101849.59;5057049;28;20068;-75
2022/06/12 03:43:33;;;;;;;5.38;2.75;;;;;;;24.23;34.72;101851.97;5042732;28;20049;-75
2022/06/12 03:46:18;;;;;;;6.00;3.28;;;;;;;24.22;34.66;101853.88;5044935;28;20115;-75
2022/06/12 03:49:25;;;;;;;5.40;2.67;;;;;;;24.13;34.92;101856.78;5038122;28;20503;-75
2022/06/12 03:52:15;;;;;;;6.90;2.92;;;;;;;24.15;34.92;101857.47;5022365;28;20099;-75
2022/06/12 03:54:50;;;;;;;5.18;2.78;;;;;;;24.13;34.68;101862.34;5042476;28;20096;-75
2022/06/12 03:58:07;;;;;;;5.85;3.00;;;;;;;24.14;35.32;101859.38;5041775;28;20124;-75
2022/06/12 04:00:23;;;;;;;5.70;2.72;;;;;;;24.12;35.33;101860.59;5041307;28;20141;-75
2022/06/12 04:03:00;;;;;;;7.00;3.28;;;;;;;24.13;35.39;101871.50;5041111;28;20249;-75
2022/06/12 04:05:36;;;;;;;4.45;2.58;;;;;;;24.12;35.40;101864.25;5045789;28;20095;-75
2022/06/12 04:08:06;;;;;;;6.72;2.65;;;;;;;24.09;35.53;101863.69;5040448;28;20507;-75
2022/06/12 04:10:37;;;;;;;5.70;3.15;;;;;;;24.08;35.57;101865.59;5049218;28;20088;-75
2022/06/12 04:13:08;;;;;;;5.40;3.20;;;;;;;24.07;35.30;101863.84;5043651;28;20132;-75
2022/06/12 04:15:45;;;;;;;5.72;2.97;;;;;;;24.07;35.72;101861.06;5041045;28;20127;-75
2022/06/12 04:18:13;;;;;;;6.10;3.13;;;;;;;24.04;35.86;101861.41;5037906;28;20045;-75
2022/06/12 04:20:47;;;;;;;8.70;3.13;;;;;;;24.04;35.51;101857.78;5043928;28;20094;-75
2022/06/12 04:23:30;;;;;;;6.03;3.03;;;;;;;24.07;35.73;101857.41;5043008;28;20095;-75
2022/06/12 04:26:02;;;;;;;5.65;2.80;;;;;;;24.04;36.20;101857.78;5044228;28;20111;-75
2022/06/12 04:28:28;;;;;;;;;;;;;;;23.75;36.22;101850.66;5044844;28;20133;-75
2022/06/12 04:30:56;;;;;;;5.93;2.88;;;;;;;23.98;36.20;101848.19;5038521;28;19924;-75
2022/06/12 04:33:56;;;;;;;;;;;;;;;23.75;36.65;101847.03;5039099;28;20049;-75
2022/06/12 04:36:23;;;;;;;6.20;3.35;;;;;;;23.97;35.93;101854.78;5046714;28;19933;-75
2022/06/12 04:38:51;;;;;;;6.00;3.25;;;;;;;24.00;36.19;101853.59;5047030;28;20049;-75
2022/06/12 04:41:22;;;;;;;5.28;3.13;;;;;;;24.04;36.56;101853.09;5047953;28;20148;-75
2022/06/12 04:43:49;;;;;;;6.80;3.67;;;;;;;24.01;36.71;101858.09;5042731;28;20064;-75
2022/06/12 04:46:15;;;;;;;7.43;3.67;;;;;;;24.01;36.77;101856.19;5047122;28;20103;-75
2022/06/12 04:48:45;;;;;;;5.78;3.58;;;;;;;24.04;36.50;101861.41;5042225;28;20049;-75
2022/06/12 04:51:12;;;;;;;6.45;3.60;;;;;;;24.04;36.51;101860.56;5040912;28;20140;-75
2022/06/12 04:53:41;;;;;;;7.68;3.58;;;;;;;24.05;36.89;101865.06;5039102;28;20089;-75
2022/06/12 04:56:08;;;;;;;7.38;3.83;;;;;;;24.05;36.82;101867.84;5044076;28;20045;-75
2022/06/12 04:58:37;;;;;;;5.00;3.17;;;;;;;24.07;37.16;101861.06;5041420;28;20045;-75
2022/06/12 05:04:42;;;;;;;7.05;2.97;;;;;;;24.05;36.73;101856.75;5038364;28;20754;-75
2022/06/12 05:07:12;;;;;;;7.53;3.85;;;;;;;24.12;36.84;101861.47;5046536;28;20134;-75
2022/06/12 05:09:42;;;;;;;6.57;3.28;;;;;;;24.14;36.88;101859.38;5046469;28;20555;-75
2022/06/12 05:12:12;;;;;;;7.53;3.50;;;;;;;24.21;37.12;101863.25;5036271;28;20110;-76
2022/06/12 05:14:40;;;;;;;6.68;3.50;;;;;;;24.27;36.62;101859.81;5042922;28;20480;-75
2022/06/12 05:17:16;;;;;;;7.18;3.15;;;;;;;24.38;36.60;101853.06;5046146;28;20107;-75
2022/06/12 05:19:44;;;;;;;6.90;3.65;;;;;;;24.47;36.70;101853.97;5043328;28;20044;-75
2022/06/12 05:22:12;;;;;;;8.13;3.25;;;;;;;24.56;36.88;101856.59;5046776;28;20543;-76
2022/06/12 05:24:40;;;;;;;6.38;3.08;;;;;;;24.68;36.14;101857.16;5046512;28;20094;-75
2022/06/12 05:27:11;;;;;;;5.80;3.10;;;;;;;24.81;36.28;101851.97;5044655;28;20518;-75
2022/06/12 05:29:40;;;;;;;4.72;2.85;;;;;;;24.93;36.13;101859.00;5041583;28;20077;-75
2022/06/12 05:32:09;;;;;;;6.15;2.90;;;;;;;25.08;35.50;101856.38;5037536;28;20068;-75
2022/06/12 05:34:36;;;;;;;5.88;3.10;;;;;;;25.22;35.14;101863.16;5042966;28;20091;-75
2022/06/12 05:37:03;;;;;;;4.95;2.70;;;;;;;25.37;35.19;101872.53;5048660;28;20137;-75
2022/06/12 05:39:30;;;;;;;6.22;2.60;;;;;;;25.52;35.04;101872.72;5043193;28;20075;-75
2022/06/12 05:41:57;;;;;;;4.80;2.60;;;;;;;25.65;34.87;101862.81;5045669;28;20091;-76
2022/06/12 05:44:24;;;;;;;3.92;2.30;;;;;;;25.83;34.37;101867.31;5045401;28;20141;-76
2022/06/12 05:46:57;;;;;;;4.65;2.10;;;;;;;25.94;34.13;101866.94;5041500;28;20531;-76
2022/06/12 05:49:24;;;;;;;4.32;2.00;;;;;;;26.08;33.88;101864.28;5040466;28;20523;-76
2022/06/12 05:51:50;;;;;;;4.70;2.10;;;;;;;26.22;33.89;101868.22;5043223;28;20152;-76
2022/06/12 05:54:17;;;;;;;5.22;2.00;;;;;;;26.36;33.06;101861.03;5044003;28;20388;-76
2022/06/12 05:56:44;;;;;;;5.10;2.17;;;;;;;26.48;32.70;101862.38;5040741;28;20053;-76
2022/06/12 05:59:10;;;;;;;5.55;1.90;;;;;;;26.60;32.54;101869.31;5044067;28;20045;-75
2022/06/12 06:01:39;;;;;;;3.97;1.90;;;;;;;26.75;32.38;101872.16;5039603;28;20559;-76
2022/06/12 06:04:07;;;;;;;3.85;1.70;;;;;;;26.86;32.14;101875.38;5042376;28;20045;-76
2022/06/12 06:07:06;;;;;;;3.58;1.50;;;;;;;26.93;31.62;101870.00;5043375;28;20041;-76
2022/06/12 06:09:33;;;;;;;3.72;1.30;;;;;;;27.07;31.77;101866.41;4988724;28;20375;-75
2022/06/12 06:11:59;;;;;;;3.85;1.40;;;;;;;27.19;31.38;101872.38;5043239;28;20080;-76
2022/06/12 06:14:26;;;;;;;3.83;1.48;;;;;;;27.30;31.40;101874.75;5044817;28;20059;-76
2022/06/12 06:16:53;;;;;;;4.65;1.52;;;;;;;27.40;30.76;101878.16;5043165;28;20133;-76
2022/06/12 06:19:19;;;;;;;3.55;1.50;;;;;;;27.49;31.02;101877.03;5047826;28;20045;-76
2022/06/12 06:21:46;;;;;;;5.40;1.50;;;;;;;27.59;30.74;101880.44;5044051;28;20045;-76
2022/06/12 06:24:13;;;;;;;3.78;1.50;;;;;;;27.69;30.79;101882.97;5046275;28;20415;-76
2022/06/12 06:26:40;;;;;;;3.70;1.17;;;;;;;27.77;30.14;101882.00;5047975;28;20072;-75
2022/06/12 06:29:08;;;;;;;3.40;1.38;;;;;;;27.85;30.32;101873.53;5048009;28;20076;-75
2022/06/12 06:31:35;;;;;;;3.33;1.30;;;;;;;27.95;30.18;101871.34;5042446;28;20084;-75
2022/06/12 06:34:02;;;;;;;2.72;0.93;;;;;;;28.05;30.03;101876.66;5044354;28;20049;-76
2022/06/12 06:36:30;;;;;;;2.25;1.00;;;;;;;28.12;29.36;101881.28;5049068;28;20487;-75
2022/06/12 06:38:58;;;;;;;4.22;1.10;;;;;;;28.20;29.19;101875.63;5046805;28;20183;-76
2022/06/12 06:41:26;;;;;;;3.67;1.45;;;;;;;28.28;29.45;101872.72;5050346;28;20080;-76
2022/06/12 06:46:39;;;;;;;4.45;1.88;;;;;;;28.45;30.06;101883.69;5046657;28;20047;-75
2022/06/12 06:49:06;;;;;;;6.30;2.20;;;;;;;28.52;30.26;101891.09;5047482;28;20048;-75
2022/06/12 06:51:33;;;;;;;5.60;2.08;;;;;;;28.60;30.18;101888.19;5039377;28;20045;-75
2022/06/12 06:54:00;;;;;;;4.53;2.10;;;;;;;28.68;30.15;101890.88;5050479;28;20051;-75
2022/06/12 06:56:27;;;;;;;4.82;2.00;;;;;;;28.74;29.72;101901.25;5039618;28;20045;-75
2022/06/12 06:58:54;;;;;;;6.53;2.13;;;;;;;28.81;30.14;101894.94;5045393;28;20057;-75
2022/06/12 07:01:21;;;;;;;5.43;2.25;;;;;;;28.88;29.43;101893.06;5045831;28;20068;-75
2022/06/12 07:03:47;;;;;;;6.07;2.00;;;;;;;28.94;29.96;101897.88;5045156;28;20051;-75
2022/06/12 07:06:15;;;;;;;5.57;2.30;;;;;;;29.01;29.57;101901.59;5043592;28;20304;-75
2022/06/12 07:08:50;;;;;;;5.53;2.47;;;;;;;29.03;29.63;101903.16;5045724;28;20041;-75
2022/06/12 07:11:18;;;;;;;4.32;2.00;;;;;;;29.09;29.23;101891.16;5041055;28;20045;-75
2022/06/12 07:13:44;;;;;;;3.38;1.77;;;;;;;29.14;29.07;101896.16;5048372;28;20087;-75
2022/06/12 07:16:12;;;;;;;4.68;2.15;;;;;;;29.18;29.36;101897.50;5047330;28;20088;-74
2022/06/12 07:18:38;;;;;;;4.38;1.77;;;;;;;29.24;29.24;101888.28;5049120;28;20099;-74
2022/06/12 07:21:05;;;;;;;4.18;1.90;;;;;;;29.29;29.01;101893.31;5049969;28;20083;-74
2022/06/12 07:23:32;;;;;;;7.97;2.30;;;;;;;29.35;29.01;101899.00;5038236;28;20128;-74
2022/06/12 07:26:04;;;;;;;4.88;1.65;;;;;;;29.41;29.09;101900.97;5047240;28;20083;-75
2022/06/12 07:28:33;;;;;;;4.57;1.60;;;;;;;29.43;28.49;101897.97;5046353;28;20052;-75
2022/06/12 07:30:59;;;;;;;3.35;1.30;;;;;;;29.48;28.54;101899.09;5045189;28;20136;-71
2022/06/12 07:33:26;;;;;;;3.50;1.58;;;;;;;29.55;28.60;101898.31;5040123;28;20132;-73
2022/06/12 07:35:53;;;;;;;4.63;1.50;;;;;;;29.60;28.09;101898.56;5045245;28;20045;-71
2022/06/12 07:38:24;;;;;;;3.38;1.15;;;;;;;29.68;27.69;101901.22;5020991;28;20056;-72
2022/06/12 07:40:55;;;;;;;3.28;1.30;;;;;;;29.72;27.59;101892.22;5047588;28;20611;-72
2022/06/12 07:43:23;;;;;;;3.78;1.52;;;;;;;29.71;27.96;101898.88;5040170;28;20503;-72
2022/06/12 07:45:51;;;;;;;4.70;1.88;;;;;;;29.78;27.64;101898.94;5048185;28;20041;-73
2022/06/12 07:48:22;;;;;;;3.33;1.30;;;;;;;29.85;27.17;101909.13;5045375;28;20048;-73
2022/06/12 07:50:49;;;;;;;2.45;1.20;;;;;;;29.83;27.51;101902.84;5043652;28;20040;-73
2022/06/12 07:53:19;;;;;;;2.47;1.20;;;;;;;29.91;26.98;101901.81;5046126;28;20438;-72
2022/06/12 07:55:46;;;;;;;2.88;1.30;;;;;;;29.92;27.17;101906.38;5043172;28;20068;-73
2022/06/12 07:58:13;;;;;;;4.03;1.17;;;;;;;29.94;26.86;101900.59;5047784;28;20132;-73
2022/06/12 08:00:41;;;;;;;2.47;0.90;;;;;;;29.97;27.03;101903.00;5047831;28;20067;-72
2022/06/12 08:03:08;;;;;;;2.72;1.10;;;;;;;29.99;26.66;101904.50;5039928;28;20041;-72
2022/06/12 08:05:35;;;;;;;3.35;1.20;;;;;;;30.01;26.63;101907.09;5038998;28;20408;-72
2022/06/12 08:08:02;;;;;;;3.00;1.20;;;;;;;30.03;26.45;101905.84;5035527;28;20076;-72
2022/06/12 08:10:29;;;;;;;2.35;0.93;;;;;;;30.06;25.96;101910.19;5044471;28;20122;-73
2022/06/12 08:12:56;;;;;;;3.33;1.40;;;;;;;30.08;26.04;101911.69;5039718;28;20081;-73
2022/06/12 08:15:27;;;;;;;3.88;1.00;;;;;;;30.13;25.79;101911.94;5040747;28;20091;-72
2022/06/12 08:17:56;;;;;;;3.60;0.98;;;;;;;30.12;25.82;101907.41;5041593;28;20136;-71
2022/06/12 08:20:25;;;;;;;3.13;1.00;;;;;;;30.16;25.72;101907.84;5045454;28;20721;-72
2022/06/12 08:22:55;;;;;;;2.70;1.10;;;;;;;30.19;25.53;101913.06;5038992;28;20045;-72
2022/06/12 08:25:24;;;;;;;3.28;1.20;;;;;;;30.20;25.07;101906.38;5047873;28;20059;-71
2022/06/12 08:27:51;;;;;;;3.17;1.00;;;;;;;30.16;25.41;101899.44;5044192;28;20456;-71
2022/06/12 08:30:18;;;;;;;2.58;1.10;;;;;;;30.16;25.20;101908.72;5048585;28;20076;-72
2022/06/12 08:32:49;;;;;;;3.67;1.13;;;;;;;30.20;24.90;101909.19;5051372;28;20080;-71
2022/06/12 08:35:22;;;;;;;2.35;0.82;;;;;;;30.20;24.15;101903.56;5049843;28;20099;-71
2022/06/12 08:37:49;;;;;;;3.25;1.08;;;;;;;30.17;24.69;101907.66;5040277;28;20080;-71
2022/06/12 08:40:35;;;;;;;3.92;1.10;;;;;;;30.20;24.43;101909.19;5046820;28;20053;-71
2022/06/12 08:43:13;;;;;;;2.15;0.90;;;;;;;30.21;23.71;101899.72;5045781;28;20141;-71
2022/06/12 08:45:47;;;;;;;4.40;2.00;;;;;;;30.22;23.86;101893.91;5041779;28;20499;-71
2022/06/12 08:48:18;;;;;;;3.92;1.40;;;;;;;30.22;23.43;101893.91;5040576;28;20056;-71
2022/06/12 08:50:53;;;;;;;3.63;1.25;;;;;;;30.23;23.58;101890.00;5046369;28;20084;-72
2022/06/12 08:53:40;;;;;;;5.25;2.60;;;;;;;30.24;23.98;101879.66;5042637;28;20095;-72
2022/06/12 08:56:16;;;;;;;4.90;2.70;;;;;;;30.24;24.28;101886.13;5043115;28;20049;-71
2022/06/12 08:58:46;;;;;;;9.95;6.93;;;;;;;30.23;24.48;101883.53;5048443;28;20506;-72
2022/06/12 09:01:14;;;;;;;15.27;10.48;;;;;;;30.25;24.06;101887.00;5043658;28;20076;-72
2022/06/12 09:03:49;;;;;;;13.52;8.38;;;;;;;30.31;24.02;101882.53;5045804;28;20072;-72
2022/06/12 09:06:21;;;;;;;10.05;5.80;;;;;;;30.29;24.16;101881.88;5049721;28;22678;-71
2022/06/12 09:09:01;;;;;;;7.10;3.85;;;;;;;30.33;23.94;101877.56;5043866;28;20056;-71
2022/06/12 09:11:43;;;;;;;4.20;2.30;;;;;;;30.36;23.83;101877.16;5041390;28;20136;-71
2022/06/12 09:14:26;;;;;;;4.78;2.30;;;;;;;30.33;24.26;101864.41;5042263;28;20052;-72
2022/06/12 09:17:15;;;;;;;3.47;1.70;;;;;;;30.40;24.22;101868.09;5045883;28;20475;-71
2022/06/12 09:19:57;;;;;;;3.60;1.50;;;;;;;30.44;23.87;101862.97;5049522;28;20044;-71
2022/06/12 09:22:46;;;;;;;4.85;1.30;;;;;;;30.42;24.19;101854.75;5043008;28;20045;-72
2022/06/12 09:25:25;;;;;;;3.38;1.20;;;;;;;30.51;23.88;101852.69;5021901;28;20103;-72
2022/06/12 09:27:55;;;;;;;2.67;1.20;;;;;;;30.51;24.47;101859.16;5031813;28;20080;-72
2022/06/12 09:30:40;;;;;;;3.65;1.40;;;;;;;30.58;23.79;101853.56;5046084;28;20077;-72
2022/06/12 09:33:12;;;;;;;2.35;0.80;;;;;;;30.58;24.20;101853.56;5036732;28;20128;-72
2022/06/12 09:35:49;;;;;;;3.40;1.20;;;;;;;30.64;23.96;101847.97;5045655;28;20040;-72
2022/06/12 09:38:33;;;;;;;4.38;1.50;;;;;;;30.64;24.07;101850.78;5044868;28;20512;-72
2022/06/12 09:41:12;;;;;;;2.95;1.20;;;;;;;30.68;24.29;101847.56;5043456;28;20054;-72
2022/06/12 09:43:57;;;;;;;4.68;1.63;;;;;;;30.72;24.53;101846.91;5048160;28;20068;-72
2022/06/12 09:46:47;;;;;;;3.28;1.40;;;;;;;30.72;24.05;101844.09;5049872;28;20049;-72
2022/06/12 09:49:41;;;;;;;3.50;1.30;;;;;;;30.75;23.61;101843.69;5036899;28;20068;-73
2022/06/12 09:52:29;;;;;;;4.53;1.52;;;;;;;30.75;24.47;101840.03;5048609;28;20041;-73
2022/06/12 09:55:05;;;;;;;3.63;1.42;;;;;;;30.78;24.60;101837.69;5040223;28;20041;-73
2022/06/12 09:57:49;;;;;;;3.47;1.63;;;;;;;30.80;24.81;101834.66;5040292;28;20075;-74
2022/06/12 10:00:30;;;;;;;4.18;1.60;;;;;;;30.80;24.27;101835.50;5042408;28;20064;-74
2022/06/12 10:03:05;;;;;;;4.55;1.50;;;;;;;30.79;24.82;101839.41;5045099;28;20128;-73
2022/06/12 10:05:41;;;;;;;4.13;1.52;;;;;;;30.86;24.44;101833.81;5041714;28;20555;-73
2022/06/12 10:08:15;;;;;;;3.20;1.20;;;;;;;30.89;23.95;101842.66;5044141;28;20118;-73
2022/06/12 10:10:49;;;;;;;4.38;1.20;;;;;;;30.90;23.64;101827.56;5049144;28;20107;-72
2022/06/12 10:13:28;;;;;;;3.60;1.20;;;;;;;30.93;24.00;101829.06;5048385;28;20088;-73
2022/06/12 10:16:02;;;;;;;3.38;1.02;;;;;;;30.97;23.51;101835.97;5049119;28;20088;-73
2022/06/12 10:18:37;;;;;;;2.90;1.00;;;;;;;30.99;23.00;101831.03;5036745;28;20049;-73
2022/06/12 10:21:09;;;;;;;2.92;1.17;;;;;;;31.01;24.11;101837.28;5046145;28;20076;-73
2022/06/12 10:23:36;;;;;;;6.07;1.25;;;;;;;31.02;24.00;101833.41;5038539;28;20502;-73
2022/06/12 10:26:14;;;;;;;3.15;1.10;;;;;;;31.07;23.43;101833.66;5035739;28;20052;-73
2022/06/12 10:28:41;;;;;;;2.15;1.20;;;;;;;31.08;24.13;101828.91;5048618;28;20048;-73
2022/06/12 10:31:11;;;;;;;3.25;1.40;;;;;;;31.14;23.95;101826.09;5044846;28;20480;-74
2022/06/12 10:33:50;;;;;;;3.60;1.20;;;;;;;31.18;24.16;101820.94;5049337;28;20051;-73
2022/06/12 10:36:30;;;;;;;3.17;1.10;;;;;;;31.19;23.67;101820.75;5048528;28;20053;-73
2022/06/12 10:39:22;;;;;;;3.20;1.17;;;;;;;31.24;23.24;101815.34;5043591;28;20124;-72
2022/06/12 10:41:57;;;;;;;4.28;1.30;;;;;;;31.22;23.79;101808.19;5039441;28;20522;-73
2022/06/12 10:44:44;;;;;;;2.55;1.08;;;;;;;31.27;23.05;101803.69;5044941;28;20140;-71
2022/06/12 10:47:43;;;;;;;6.72;1.50;;;;;;;31.28;23.73;101811.03;5050509;28;20041;-72
2022/06/12 10:50:13;;;;;;;3.38;1.27;;;;;;;31.37;23.77;101800.44;5044035;28;20057;-74
2022/06/12 10:53:02;;;;;;;3.83;1.25;;;;;;;31.37;23.73;101795.69;5048279;28;20041;-72
2022/06/12 10:55:57;;;;;;;3.72;1.17;;;;;;;31.44;23.58;101794.81;5045343;28;20080;-72
2022/06/12 10:58:52;;;;;;;3.10;1.00;;;;;;;31.48;23.02;101787.69;5045362;28;20052;-72
2022/06/12 11:01:46;;;;;;;3.40;1.20;;;;;;;31.49;23.40;101795.03;5040148;28;20084;-72
2022/06/12 11:04:34;;;;;;;2.83;1.15;;;;;;;31.55;22.40;101794.16;5052276;28;20503;-73
2022/06/12 11:07:02;;;;;;;3.78;1.10;;;;;;;31.53;23.10;101788.78;5052606;28;20561;-73
2022/06/12 11:09:55;;;;;;;4.72;1.38;;;;;;;31.57;23.04;101792.84;5047092;28;20049;-74
2022/06/12 11:12:33;;;;;;;;;;;;;;;31.31;23.99;101788.13;5041505;28;20083;-72
2022/06/12 11:15:07;;;;;;;3.63;1.40;;;;;;;31.59;22.75;101795.44;5050748;28;19924;-73
2022/06/12 11:18:14;;;;;;;5.00;1.65;;;;;;;31.65;22.74;101791.78;5051977;28;20133;-73
2022/06/12 11:20:50;;;;;;;3.22;1.13;;;;;;;31.70;23.00;101784.47;5047393;28;20360;-72
2022/06/12 11:23:38;;;;;;;3.38;1.10;;;;;;;31.75;22.26;101784.66;5051009;28;20477;-73
2022/06/12 11:26:13;;;;;;;3.10;1.10;;;;;;;31.76;23.02;101779.91;5041456;28;20056;-73
2022/06/12 11:29:16;;;;;;;3.83;1.30;;;;;;;31.84;22.67;101781.59;5051857;28;20449;-73
2022/06/12 11:32:02;;;;;;;3.25;1.10;;;;;;;31.89;22.15;101781.81;5045834;28;20056;-72
2022/06/12 11:34:54;;;;;;;5.40;1.40;;;;;;;31.91;21.68;101776.81;5039149;28;20056;-74
2022/06/12 11:37:41;;;;;;;2.40;1.10;;;;;;;31.96;21.80;101777.88;5047853;28;20079;-76
2022/06/12 11:40:24;;;;;;;4.13;1.80;;;;;;;32.02;21.95;101779.84;5042028;28;20076;-73
2022/06/12 11:43:14;;;;;;;3.67;1.80;;;;;;;32.05;22.17;101782.19;5049328;28;20139;-75
2022/06/12 11:46:17;;;;;;;4.35;1.60;;;;;;;32.07;21.68;101780.03;5046390;28;20139;-75
2022/06/12 11:49:15;;;;;;;4.93;1.52;;;;;;;32.05;22.29;101776.56;5052822;28;20476;-76
2022/06/12 11:51:58;;;;;;;5.00;1.13;;;;;;;32.14;21.44;101775.22;5040576;28;20403;-76
2022/06/12 11:54:45;;;;;;;4.28;1.42;;;;;;;32.18;21.49;101769.22;5036429;28;20073;-77
2022/06/12 11:57:20;;;;;;;3.67;1.30;;;;;;;32.21;21.50;101760.31;5048523;28;20098;-75
2022/06/12 12:00:05;;;;;;;4.15;1.40;;;;;;;32.23;22.21;101764.63;5050525;28;20052;-77
2022/06/12 12:03:04;;;;;;;4.57;1.70;;;;;;;32.23;22.35;101763.75;5048019;28;20045;-74
2022/06/12 12:05:45;;;;;;;9.38;2.38;;;;;;;32.26;22.50;101758.56;5039944;28;20391;-75
2022/06/12 12:08:37;;;;;;;18.23;3.33;;;;;;;32.26;22.80;101755.75;5047967;28;20087;-74
2022/06/12 12:11:13;;;;;;;8.50;3.13;;;;;;;32.28;22.62;101762.03;5041454;28;20041;-75
2022/06/12 12:13:43;;;;;;;5.70;2.00;;;;;;;32.30;22.17;101747.72;5051556;28;20068;-74
2022/06/12 12:17:00;;;;;;;7.25;2.30;;;;;;;32.23;22.56;101755.34;5051595;28;20091;-72